Time;durP1;ratioP1;P1;durP2;ratioP2;P2;SDS_P1;SDS_P2;PMS_P1;PMS_P2;Temp;Humidity;BMP_temperature;BMP_pressure;BME280_temperature;BME280_humidity;BME280_pressure;Samples;Min_cycle;Max_cycle;Signal;HPM_P1;HPM_P2
2022/09/29 00:01:20;;;;;;;;;;;;;;;10.29;66.52;99751.09;5037712;28;19921;-49
2022/09/29 00:03:45;;;;;;;;;;;;;;;10.29;66.45;99751.09;5039229;28;21137;-53
2022/09/29 00:06:13;;;;;;;;;;;;;;;10.27;66.13;99749.53;5037709;28;19929;-53
2022/09/29 00:08:38;;;;;;;;;;;;;;;10.26;66.32;99751.28;5039574;28;20785;-48
2022/09/29 00:11:11;;;;;;;;;;;;;;;10.24;66.34;99747.94;5034523;28;20046;-48
2022/09/29 00:13:36;;;;;;;;;;;;;;;10.21;66.30;99756.03;5033550;28;20148;-48
2022/09/29 00:16:02;;;;;;;;;;;;;;;10.20;66.55;99754.38;5034957;28;20490;-50
2022/09/29 00:18:28;;;;;;;;;;;;;;;10.17;66.45;99755.44;5045079;28;20055;-54
2022/09/29 00:21:01;;;;;;;;;;;;;;;10.15;66.62;99756.50;5039180;28;19943;-50
2022/09/29 00:23:27;;;;;;;;;;;;;;;10.14;66.47;99749.56;5036764;28;19920;-49
2022/09/29 00:26:24;;;;;;;;;;;;;;;10.13;66.55;99755.75;5035037;28;19988;-49
2022/09/29 00:28:52;;;;;;;;;;;;;;;10.12;66.56;99756.72;5011988;28;19928;-52
2022/09/29 00:31:18;;;;;;;;;;;;;;;10.10;66.37;99753.34;5032092;28;19921;-48
2022/09/29 00:33:44;;;;;;;;;;;;;;;10.08;66.36;99758.72;5036727;28;19924;-49
2022/09/29 00:36:11;;;;;;;;;;;;;;;10.05;66.63;99754.53;5035832;28;19929;-49
2022/09/29 00:38:36;;;;;;;;;;;;;;;10.05;66.68;99759.78;5038022;28;19939;-49
2022/09/29 00:41:02;;;;;;;;;;;;;;;10.02;66.66;99757.38;5036159;28;19921;-50
2022/09/29 00:43:46;;;;;;;;;;;;;;;10.01;66.53;99765.34;5036214;28;19924;-49
2022/09/29 00:46:13;;;;;;;;;;;;;;;9.98;66.63;99760.34;5035900;28;19971;-52
2022/09/29 00:48:39;;;;;;;;;;;;;;;9.97;66.56;99761.28;5035530;28;20200;-49
2022/09/29 00:51:05;;;;;;;;;;;;;;;9.95;66.55;99764.00;5045444;28;19927;-52
2022/09/29 00:53:30;;;;;;;;;;;;;;;9.95;66.61;99761.38;5038236;28;19920;-49
2022/09/29 00:55:59;;;;;;;;;;;;;;;9.95;66.61;99756.13;5035438;28;19956;-49
2022/09/29 00:58:27;;;;;;;;;;;;;;;9.97;66.53;99763.91;5035527;28;19928;-50
2022/09/29 01:00:53;;;;;;;;;;;;;;;9.95;66.53;99760.56;5034788;28;19970;-49
2022/09/29 01:03:20;;;;;;;;;;;;;;;9.92;66.37;99758.97;5034835;28;19962;-50
2022/09/29 01:05:49;;;;;;;;;;;;;;;9.88;66.46;99765.41;5036400;28;19923;-52
2022/09/29 01:08:28;;;;;;;;;;;;;;;9.87;66.50;99761.09;5035842;28;19983;-49
2022/09/29 01:10:53;;;;;;;;;;;;;;;9.84;66.49;99761.31;5035006;28;19931;-50
2022/09/29 01:13:19;;;;;;;;;;;;;;;9.82;66.61;99763.19;5034047;28;19920;-52
2022/09/29 01:15:44;;;;;;;;;;;;;;;9.80;66.61;99762.47;5035554;28;19943;-50
2022/09/29 01:18:10;;;;;;;;;;;;;;;9.79;66.63;99771.28;5032745;28;19929;-50
2022/09/29 01:20:45;;;;;;;;;;;;;;;9.76;66.66;99767.91;5034626;28;20030;-51
2022/09/29 01:23:29;;;;;;;;;;;;;;;9.75;66.72;99768.03;5036963;28;21178;-48
2022/09/29 01:26:06;;;;;;;;;;;;;;;9.77;66.54;99774.03;5034849;28;20474;-49
2022/09/29 01:28:50;;;;;;;;;;;;;;;9.76;66.55;99778.44;5032833;28;19917;-49
2022/09/29 01:31:17;;;;;;;;;;;;;;;9.75;66.65;99787.28;5041690;28;20398;-52
2022/09/29 01:33:48;;;;;;;;;;;;;;;9.73;66.41;99780.44;5022961;28;19921;-53
2022/09/29 01:36:16;;;;;;;;;;;;;;;9.71;66.72;99784.97;5034218;28;19925;-51
2022/09/29 01:38:51;;;;;;;;;;;;;;;9.71;66.78;99783.19;5038855;28;19924;-52
2022/09/29 01:41:31;;;;;;;;;;;;;;;9.73;66.53;99783.94;5035997;28;19928;-52
2022/09/29 01:44:00;;;;;;;;;;;;;;;9.72;66.60;99784.00;5040652;28;19939;-49
2022/09/29 01:46:29;;;;;;;;;;;;;;;9.72;66.54;99789.25;5040682;28;19967;-49
2022/09/29 01:48:56;;;;;;;;;;;;;;;9.73;66.65;99790.94;5042714;28;19947;-50
2022/09/29 01:51:23;;;;;;;;;;;;;;;9.73;66.61;99793.56;5038166;28;19986;-51
2022/09/29 01:53:51;;;;;;;;;;;;;;;9.72;66.53;99791.88;5041509;28;19982;-50
2022/09/29 01:56:20;;;;;;;;;;;;;;;9.72;66.56;99797.16;5040007;28;20459;-51
2022/09/29 01:58:46;;;;;;;;;;;;;;;9.71;66.49;99795.47;5040947;28;20045;-50
2022/09/29 02:01:13;;;;;;;;;;;;;;;9.71;66.67;99806.81;5033496;28;20016;-49
2022/09/29 02:03:50;;;;;;;;;;;;;;;9.70;66.54;99799.88;5033274;28;22091;-52
2022/09/29 02:06:24;;;;;;;;;;;;;;;9.69;66.56;99808.72;5036438;28;19990;-54
2022/09/29 02:08:52;;;;;;;;;;;;;;;9.68;66.64;99800.94;5035516;28;20861;-49
2022/09/29 02:11:17;;;;;;;;;;;;;;;9.68;66.77;99799.16;5036974;28;19971;-52
2022/09/29 02:13:59;;;;;;;;;;;;;;;9.67;66.76;99802.72;5038712;28;19999;-53
2022/09/29 02:16:27;;;;;;;;;;;;;;;9.66;66.54;99805.47;5033972;28;20043;-49
2022/09/29 02:19:04;;;;;;;;;;;;;;;9.66;66.65;99814.19;5035012;28;19921;-50
2022/09/29 02:21:29;;;;;;;;;;;;;;;9.65;66.61;99806.41;5035355;28;24682;-51
2022/09/29 02:23:55;;;;;;;;;;;;;;;9.62;66.76;99812.69;5040193;28;19929;-50
2022/09/29 02:26:21;;;;;;;;;;;;;;;9.59;66.51;99812.94;5035866;28;20015;-50
2022/09/29 02:28:47;;;;;;;;;;;;;;;9.59;66.62;99818.19;5035858;28;19944;-49
2022/09/29 02:31:13;;;;;;;;;;;;;;;9.56;66.77;99819.22;5036019;28;19958;-51
2022/09/29 02:33:38;;;;;;;;;;;;;;;9.56;66.71;99821.84;5033642;28;19932;-50
2022/09/29 02:36:12;;;;;;;;;;;;;;;9.57;66.58;99814.81;5035270;28;19936;-49
2022/09/29 02:38:43;;;;;;;;;;;;;;;9.55;66.56;99811.44;5033817;28;24564;-50
2022/09/29 02:41:15;;;;;;;;;;;;;;;9.55;66.64;99816.69;5041924;28;19952;-50
2022/09/29 02:43:43;;;;;;;;;;;;;;;9.55;66.87;99816.69;5037353;28;19920;-50
2022/09/29 02:46:11;;;;;;;;;;;;;;;9.59;66.83;99819.00;5034602;28;19921;-50
2022/09/29 02:48:39;;;;;;;;;;;;;;;9.60;66.95;99812.00;5036854;28;19975;-49
2022/09/29 02:51:08;;;;;;;;;;;;;;;9.63;66.97;99814.38;5036986;28;20231;-51
2022/09/29 02:53:39;;;;;;;;;;;;;;;9.63;66.98;99819.63;5036388;28;19959;-50
2022/09/29 02:56:23;;;;;;;;;;;;;;;9.65;66.86;99816.91;5037557;28;19925;-51
2022/09/29 02:58:50;;;;;;;;;;;;;;;9.66;67.08;99822.06;5018161;28;19925;-50
2022/09/29 03:01:16;;;;;;;;;;;;;;;9.64;67.20;99818.69;5032973;28;19929;-51
2022/09/29 03:03:42;;;;;;;;;;;;;;;9.63;67.16;99824.88;5034067;28;20010;-50
2022/09/29 03:06:08;;;;;;;;;;;;;;;9.60;67.28;99820.69;5036717;28;19920;-50
2022/09/29 03:08:33;;;;;;;;;;;;;;;9.60;67.30;99819.88;5036589;28;19932;-49
2022/09/29 03:10:59;;;;;;;;;;;;;;;9.60;67.46;99819.88;5036822;28;20289;-50
2022/09/29 03:13:24;;;;;;;;;;;;;;;9.59;67.55;99823.44;5036097;28;19924;-50
2022/09/29 03:15:50;;;;;;;;;;;;;;;9.58;67.70;99822.56;5036562;28;19924;-50
2022/09/29 03:18:15;;;;;;;;;;;;;;;9.58;67.77;99827.00;5040193;28;20637;-51
2022/09/29 03:20:40;;;;;;;;;;;;;;;9.60;67.72;99825.94;5019165;28;19929;-49
2022/09/29 03:23:06;;;;;;;;;;;;;;;9.64;67.84;99825.75;5028092;28;19929;-49
2022/09/29 03:25:31;;;;;;;;;;;;;;;9.65;68.02;99825.63;5034734;28;19987;-50
2022/09/29 03:27:56;;;;;;;;;;;;;;;9.69;67.92;99834.97;5028601;28;19921;-50
2022/09/29 03:30:22;;;;;;;;;;;;;;;9.72;68.03;99839.19;5033846;28;20039;-50
2022/09/29 03:32:47;;;;;;;;;;;;;;;9.73;68.18;99839.09;5036457;28;20269;-52
2022/09/29 03:35:13;;;;;;;;;;;;;;;9.75;67.94;99841.59;5033083;28;20012;-50
2022/09/29 03:37:38;;;;;;;;;;;;;;;9.77;68.01;99844.97;5037428;28;20035;-50
2022/09/29 03:40:04;;;;;;;;;;;;;;;9.80;67.98;99844.75;5035163;28;19921;-50
2022/09/29 03:42:30;;;;;;;;;;;;;;;9.81;68.18;99846.44;5030919;28;20429;-49
2022/09/29 03:44:55;;;;;;;;;;;;;;;9.83;68.15;99843.69;5039005;28;19917;-49
2022/09/29 03:47:21;;;;;;;;;;;;;;;9.83;68.17;99848.94;5039910;28;19924;-51
2022/09/29 03:49:46;;;;;;;;;;;;;;;9.84;68.10;99855.88;5048434;28;20007;-50
2022/09/29 03:52:11;;;;;;;;;;;;;;;9.85;68.06;99849.69;5045712;28;19939;-49
2022/09/29 03:54:37;;;;;;;;;;;;;;;9.85;68.31;99853.16;5048251;28;19928;-49
2022/09/29 03:57:02;;;;;;;;;;;;;;;9.87;68.36;99861.78;5027917;28;19921;-50
2022/09/29 03:59:27;;;;;;;;;;;;;;;9.90;68.35;99847.59;5045607;28;19952;-52
2022/09/29 04:01:53;;;;;;;;;;;;;;;9.88;68.29;99860.00;5036710;28;20536;-50
2022/09/29 04:04:18;;;;;;;;;;;;;;;9.87;68.25;99858.31;5042958;28;19920;-49
2022/09/29 04:06:43;;;;;;;;;;;;;;;9.84;68.48;99861.97;5026727;28;19978;-50
2022/09/29 04:09:09;;;;;;;;;;;;;;;9.83;68.17;99862.91;5045818;28;19970;-49
2022/09/29 04:11:34;;;;;;;;;;;;;;;9.81;68.50;99867.47;5045325;28;19967;-49
2022/09/29 04:13:59;;;;;;;;;;;;;;;9.83;68.56;99862.91;5044129;28;19972;-49
2022/09/29 04:16:25;;;;;;;;;;;;;;;9.83;68.75;99864.72;5044325;28;20033;-49
2022/09/29 04:18:50;;;;;;;;;;;;;;;9.85;68.67;99868.09;5044439;28;19921;-50
2022/09/29 04:21:16;;;;;;;;;;;;;;;9.86;68.78;99862.72;5043522;28;19927;-49
2022/09/29 04:23:41;;;;;;;;;;;;;;;9.87;68.69;99874.09;5040764;28;19963;-50
2022/09/29 04:26:07;;;;;;;;;;;;;;;9.87;68.81;99863.56;5045619;28;20522;-51
2022/09/29 04:28:33;;;;;;;;;;;;;;;9.88;68.92;99881.84;5043808;28;20377;-50
2022/09/29 04:30:59;;;;;;;;;;;;;;;9.88;69.00;99876.59;5041561;28;19923;-50
2022/09/29 04:33:24;;;;;;;;;;;;;;;9.88;68.94;99881.03;5035711;28;19921;-51
2022/09/29 04:35:50;;;;;;;;;;;;;;;9.90;69.10;99873.88;5041881;28;20656;-49
2022/09/29 04:38:15;;;;;;;;;;;;;;;9.90;69.03;99885.22;5041419;28;20347;-50
2022/09/29 04:40:40;;;;;;;;;;;;;;;9.94;69.21;99875.31;5042757;28;19921;-49
2022/09/29 04:43:06;;;;;;;;;;;;;;;9.97;69.07;99875.13;5040499;28;20070;-50
2022/09/29 04:45:31;;;;;;;;;;;;;;;10.00;69.14;99880.16;5034277;28;19921;-49
2022/09/29 04:47:56;;;;;;;;;;;;;;;10.01;69.31;99876.59;5042817;28;19917;-49
2022/09/29 04:50:22;;;;;;;;;;;;;;;10.04;69.39;99880.78;5038647;28;19928;-49
2022/09/29 04:52:47;;;;;;;;;;;;;;;10.06;69.09;99879.72;5022958;28;19920;-50
2022/09/29 04:55:13;;;;;;;;;;;;;;;10.11;69.26;99875.94;5043091;28;19921;-49
2022/09/29 04:57:39;;;;;;;;;;;;;;;10.12;69.27;99888.16;5045652;28;19928;-49
2022/09/29 05:00:06;;;;;;;;;;;;;;;10.15;69.26;99883.50;5046691;28;19970;-49
2022/09/29 05:02:32;;;;;;;;;;;;;;;10.18;69.34;99887.72;5046441;28;19924;-50
2022/09/29 05:04:57;;;;;;;;;;;;;;;10.20;69.47;99891.09;5047109;28;19925;-49
2022/09/29 05:07:22;;;;;;;;;;;;;;;10.22;69.31;99883.91;5048882;28;19921;-50
2022/09/29 05:09:48;;;;;;;;;;;;;;;10.23;69.38;99885.59;5044923;28;19925;-49
2022/09/29 05:12:13;;;;;;;;;;;;;;;10.26;69.32;99884.56;5045982;28;20467;-49
2022/09/29 05:14:38;;;;;;;;;;;;;;;10.27;69.34;99886.25;5043679;28;19975;-53
2022/09/29 05:17:04;;;;;;;;;;;;;;;10.29;69.43;99887.81;5046177;28;19929;-50
2022/09/29 05:19:30;;;;;;;;;;;;;;;10.30;69.40;99889.50;5044746;28;19925;-49
2022/09/29 05:21:56;;;;;;;;;;;;;;;10.33;69.34;99891.91;5046567;28;19932;-50
2022/09/29 05:24:22;;;;;;;;;;;;;;;10.33;69.43;99902.44;5045878;28;20033;-50
2022/09/29 05:26:47;;;;;;;;;;;;;;;10.35;69.37;99903.16;5048570;28;19916;-50
2022/09/29 05:29:12;;;;;;;;;;;;;;;10.35;69.32;99900.53;5041866;28;19920;-49
2022/09/29 05:31:38;;;;;;;;;;;;;;;10.35;69.28;99902.31;5044076;28;19925;-49
2022/09/29 05:34:03;;;;;;;;;;;;;;;10.35;69.32;99908.44;5046230;28;19927;-49
2022/09/29 05:36:28;;;;;;;;;;;;;;;10.37;69.55;99900.41;5046738;28;20395;-50
2022/09/29 05:38:55;;;;;;;;;;;;;;;10.38;69.37;99904.75;5047267;28;19924;-50
2022/09/29 05:41:23;;;;;;;;;;;;;;;10.39;69.33;99909.06;5045173;28;20148;-51
2022/09/29 05:43:48;;;;;;;;;;;;;;;10.42;69.41;99905.38;5047738;28;19921;-50
2022/09/29 05:46:15;;;;;;;;;;;;;;;10.43;69.29;99905.28;5045095;28;19924;-49
2022/09/29 05:48:42;;;;;;;;;;;;;;;10.45;69.44;99905.16;5045312;28;19925;-49
2022/09/29 05:51:12;;;;;;;;;;;;;;;10.45;69.40;99906.00;5047214;28;19924;-51
2022/09/29 05:53:38;;;;;;;;;;;;;;;10.44;69.35;99911.38;5039320;28;19920;-52
2022/09/29 05:56:07;;;;;;;;;;;;;;;10.45;69.27;99915.69;5048095;28;19920;-49
2022/09/29 05:58:33;;;;;;;;;;;;;;;10.45;69.18;99913.06;5046341;28;19932;-51
2022/09/29 06:00:58;;;;;;;;;;;;;;;10.44;69.33;99914.84;5044747;28;20269;-52
2022/09/29 06:03:23;;;;;;;;;;;;;;;10.45;69.37;99918.31;5046254;28;19921;-50
2022/09/29 06:05:49;;;;;;;;;;;;;;;10.43;69.34;99914.94;5044726;28;19925;-50
2022/09/29 06:08:14;;;;;;;;;;;;;;;10.44;69.19;99919.28;5047803;28;19960;-50
2022/09/29 06:10:40;;;;;;;;;;;;;;;10.44;69.15;99917.47;5046649;28;19936;-49
2022/09/29 06:13:05;;;;;;;;;;;;;;;10.47;69.24;99916.44;5041134;28;20351;-52
2022/09/29 06:15:30;;;;;;;;;;;;;;;10.47;69.28;99914.63;5045689;28;20483;-51
2022/09/29 06:17:59;;;;;;;;;;;;;;;10.50;69.24;99918.84;5044715;28;20388;-51
2022/09/29 06:20:25;;;;;;;;;;;;;;;10.53;69.30;99923.88;5043991;28;19917;-52
2022/09/29 06:22:54;;;;;;;;;;;;;;;10.57;69.14;99914.00;5042558;28;19998;-51
2022/09/29 06:25:19;;;;;;;;;;;;;;;10.58;69.21;99921.75;5046035;28;20411;-49
2022/09/29 06:27:45;;;;;;;;;;;;;;;10.61;69.28;99932.06;5045084;28;20552;-51
2022/09/29 06:30:12;;;;;;;;;;;;;;;10.62;69.16;99928.50;5047259;28;20296;-53
2022/09/29 06:32:37;;;;;;;;;;;;;;;10.65;69.30;99941.44;5040644;28;19920;-53
2022/09/29 06:37:46;;;;;;;;;;;;;;;10.72;69.30;99948.88;5038247;28;19935;-51
2022/09/29 06:40:12;;;;;;;;;;;;;;;10.74;69.21;99949.63;5044223;28;20275;-51
2022/09/29 06:42:37;;;;;;;;;;;;;;;10.76;69.28;99951.19;5046407;28;21058;-50
2022/09/29 06:45:03;;;;;;;;;;;;;;;10.79;69.09;99950.13;5041450;28;20272;-50
2022/09/29 06:47:28;;;;;;;;;;;;;;;10.77;69.13;99952.84;5044440;28;20369;-50
2022/09/29 06:49:54;;;;;;;;;;;;;;;10.80;69.24;99951.81;5046319;28;19921;-49
2022/09/29 06:52:19;;;;;;;;;;;;;;;10.82;69.26;99957.78;5042916;28;19967;-52
2022/09/29 06:54:45;;;;;;;;;;;;;;;10.82;69.03;99963.91;5040781;28;19923;-51
2022/09/29 06:57:10;;;;;;;;;;;;;;;10.85;69.14;99954.13;5047167;28;19939;-52
2022/09/29 06:59:36;;;;;;;;;;;;;;;10.88;69.08;99964.44;5043797;28;19932;-51
2022/09/29 07:02:01;;;;;;;;;;;;;;;10.88;69.07;99964.44;5044116;28;20015;-51
2022/09/29 07:04:27;;;;;;;;;;;;;;;10.88;69.12;99965.25;5044355;28;19924;-51
2022/09/29 07:06:52;;;;;;;;;;;;;;;10.89;69.18;99966.94;5046937;28;19970;-49
2022/09/29 07:09:18;;;;;;;;;;;;;;;10.90;69.03;99968.63;5046648;28;19924;-52
2022/09/29 07:11:48;;;;;;;;;;;;;;;10.92;69.07;99968.50;5048195;28;19951;-49
2022/09/29 07:14:14;;;;;;;;;;;;;;;10.93;69.01;99968.41;5040522;28;19920;-52
2022/09/29 07:16:39;;;;;;;;;;;;;;;10.95;69.14;99971.78;5044725;28;19923;-50
2022/09/29 07:19:05;;;;;;;;;;;;;;;10.96;69.05;99970.84;5048092;28;20023;-50
2022/09/29 07:21:30;;;;;;;;;;;;;;;10.97;69.08;99971.66;5048253;28;19974;-49
2022/09/29 07:23:55;;;;;;;;;;;;;;;11.00;68.99;99970.59;5047641;28;20385;-48
2022/09/29 07:26:21;;;;;;;;;;;;;;;11.01;69.04;99972.28;5049398;28;19928;-50
2022/09/29 07:28:46;;;;;;;;;;;;;;;11.02;69.20;99977.44;5050701;28;19925;-48
2022/09/29 07:31:13;;;;;;;;;;;;;;;11.03;69.25;99978.28;5047544;28;19929;-50
2022/09/29 07:33:38;;;;;;;;;;;;;;;11.07;69.29;99979.75;5046885;28;19921;-52
2022/09/29 07:36:04;;;;;;;;;;;;;;;11.09;69.16;99983.09;5048096;28;19921;-50
2022/09/29 07:38:30;;;;;;;;;;;;;;;11.10;69.07;99980.34;5049712;28;19925;-49
2022/09/29 07:40:58;;;;;;;;;;;;;;;11.13;69.07;99987.19;5047578;28;19924;-50
2022/09/29 07:43:24;;;;;;;;;;;;;;;11.13;68.88;99995.94;5047421;28;19972;-49
2022/09/29 07:45:50;;;;;;;;;;;;;;;11.14;68.74;99991.50;5049747;28;19963;-50
2022/09/29 07:48:16;;;;;;;;;;;;;;;11.15;68.99;99994.97;5049179;28;20027;-48
2022/09/29 07:50:42;;;;;;;;;;;;;;;11.15;68.74;100002.88;5046842;28;20011;-49
2022/09/29 07:53:07;;;;;;;;;;;;;;;11.12;68.69;100010.03;5048756;28;19932;-48
2022/09/29 07:55:33;;;;;;;;;;;;;;;11.13;68.91;100005.59;5043876;28;19970;-49
2022/09/29 07:58:00;;;;;;;;;;;;;;;11.12;69.00;100011.81;5048278;28;19925;-52
2022/09/29 08:00:25;;;;;;;;;;;;;;;11.14;69.07;100015.19;5031188;28;19928;-48
2022/09/29 08:02:50;;;;;;;;;;;;;;;11.13;69.06;100016.13;5049321;28;20380;-51
2022/09/29 08:05:16;;;;;;;;;;;;;;;11.12;68.95;100014.47;5045574;28;19931;-49
2022/09/29 08:07:42;;;;;;;;;;;;;;;11.11;68.79;100023.34;5050072;28;19921;-49
2022/09/29 08:10:07;;;;;;;;;;;;;;;11.13;69.02;100024.91;5050691;28;19920;-50
2022/09/29 08:12:33;;;;;;;;;;;;;;;11.13;68.56;100026.66;5045312;28;19964;-51
2022/09/29 08:14:58;;;;;;;;;;;;;;;11.12;68.63;100028.47;5045769;28;19932;-49
2022/09/29 08:17:23;;;;;;;;;;;;;;;11.14;68.71;100033.63;5049032;28;20002;-49
2022/09/29 08:19:49;;;;;;;;;;;;;;;11.18;68.70;100029.81;5039211;28;19973;-48
2022/09/29 08:22:14;;;;;;;;;;;;;;;11.22;68.63;100026.03;5042395;28;19929;-51
2022/09/29 08:24:39;;;;;;;;;;;;;;;11.24;68.63;100039.06;5040736;28;19977;-53
2022/09/29 08:27:05;;;;;;;;;;;;;;;11.26;68.42;100040.66;5044248;28;20035;-49
2022/09/29 08:29:31;;;;;;;;;;;;;;;11.27;68.51;100039.69;5043984;28;19925;-49
2022/09/29 08:31:56;;;;;;;;;;;;;;;11.30;68.64;100030.75;5044544;28;19916;-49
2022/09/29 08:34:22;;;;;;;;;;;;;;;11.32;68.63;100041.16;5043680;28;19931;-49
2022/09/29 08:36:47;;;;;;;;;;;;;;;11.34;68.46;100042.75;5045013;28;19916;-48
2022/09/29 08:39:14;;;;;;;;;;;;;;;11.37;68.54;100041.69;5045206;28;20455;-48
2022/09/29 08:41:56;;;;;;;;;;;;;;;11.40;68.76;100042.28;5046573;28;21266;-50
2022/09/29 08:44:26;;;;;;;;;;;;;;;11.47;68.77;100047.94;5041520;28;21141;-49
2022/09/29 08:46:53;;;;;;;;;;;;;;;11.52;68.65;100047.59;5045365;28;19932;-50
2022/09/29 08:49:26;;;;;;;;;;;;;;;11.58;68.75;100047.19;5045691;28;19921;-49
2022/09/29 08:51:54;;;;;;;;;;;;;;;11.65;68.71;100052.84;5041607;28;19945;-49
2022/09/29 08:54:52;;;;;;;;;;;;;;;11.69;68.71;100047.22;5043321;28;20019;-50
2022/09/29 08:57:18;;;;;;;;;;;;;;;11.78;68.63;100048.34;5013515;28;19925;-52
2022/09/29 08:59:51;;;;;;;;;;;;;;;11.83;68.65;100056.75;5043567;28;19971;-50
2022/09/29 09:02:35;;;;;;;;;;;;;;;11.88;68.41;100054.59;5039781;28;20388;-49
2022/09/29 09:05:00;;;;;;;;;;;;;;;11.94;68.35;100055.09;5046386;28;19927;-51
2022/09/29 09:07:26;;;;;;;;;;;;;;;11.98;68.33;100046.03;5045014;28;19921;-50
2022/09/29 09:09:58;;;;;;;;;;;;;;;12.03;68.18;100057.06;5045475;28;19917;-51
2022/09/29 09:12:45;;;;;;;;;;;;;;;12.08;68.14;100051.47;5045751;28;19921;-52
2022/09/29 09:15:30;;;;;;;;;;;;;;;12.14;68.13;100058.91;5046390;28;19924;-49
2022/09/29 09:18:02;;;;;;;;;;;;;;;12.19;68.08;100062.06;5046570;28;19943;-50
2022/09/29 09:20:53;;;;;;;;;;;;;;;12.19;68.03;100057.59;5046159;28;19916;-50
2022/09/29 09:23:20;;;;;;;;;;;;;;;12.20;68.02;100061.94;5041517;28;20070;-49
2022/09/29 09:25:58;;;;;;;;;;;;;;;12.24;68.07;100051.16;5047825;28;20313;-52
2022/09/29 09:28:33;;;;;;;;;;;;;;;12.29;67.92;100059.56;5049059;28;19966;-49
2022/09/29 09:31:02;;;;;;;;;;;;;;;12.31;67.81;100060.28;5044881;28;19962;-52
2022/09/29 09:33:33;;;;;;;;;;;;;;;12.34;67.93;100055.63;5046356;28;19978;-51
2022/09/29 09:36:04;;;;;;;;;;;;;;;12.36;67.70;100058.13;5048947;28;20340;-52
2022/09/29 09:38:43;;;;;;;;;;;;;;;12.37;67.79;100062.44;5043926;28;19924;-51
2022/09/29 09:41:09;;;;;;;;;;;;;;;12.39;67.61;100063.19;5043365;28;19921;-50
2022/09/29 09:43:38;;;;;;;;;;;;;;;12.43;67.63;100069.91;5046850;28;19920;-49
2022/09/29 09:46:12;;;;;;;;;;;;;;;12.47;67.27;100070.50;5045809;28;19927;-50
2022/09/29 09:48:42;;;;;;;;;;;;;;;12.50;67.13;100073.75;5046447;28;19926;-50
2022/09/29 09:51:30;;;;;;;;;;;;;;;12.52;67.25;100072.78;5045161;28;19924;-50
2022/09/29 09:53:58;;;;;;;;;;;;;;;12.55;67.29;100078.69;5024899;28;20443;-49
2022/09/29 09:56:32;;;;;;;;;;;;;;;12.57;67.15;100073.28;5047362;28;19923;-49
2022/09/29 09:58:57;;;;;;;;;;;;;;;12.59;66.97;100079.28;5044876;28;19921;-51
2022/09/29 10:01:23;;;;;;;;;;;;;;;12.61;66.75;100087.94;5043411;28;19921;-49
2022/09/29 10:03:49;;;;;;;;;;;;;;;12.62;66.78;100089.63;5046457;28;19932;-49
2022/09/29 10:06:14;;;;;;;;;;;;;;;12.62;66.87;100077.25;5044847;28;19925;-48
2022/09/29 10:08:41;;;;;;;;;;;;;;;12.64;66.77;100082.41;5044533;28;19932;-50
2022/09/29 10:11:21;;;;;;;;;;;;;;;12.66;66.79;100085.75;5042639;28;19927;-49
2022/09/29 10:13:49;;;;;;;;;;;;;;;12.66;66.18;100091.03;5044697;28;19925;-49
2022/09/29 10:16:17;;;;;;;;;;;;;;;12.67;66.34;100099.81;5044046;28;19917;-49
2022/09/29 10:18:45;;;;;;;;;;;;;;;12.70;66.35;100091.66;5043282;28;21740;-52
2022/09/29 10:21:29;;;;;;;;;;;;;;;12.75;66.48;100095.63;5040149;28;19920;-50
2022/09/29 10:23:56;;;;;;;;;;;;;;;12.80;66.18;100090.81;5041403;28;19921;-51
2022/09/29 10:26:26;;;;;;;;;;;;;;;12.84;66.27;100095.88;5046080;28;20011;-49
2022/09/29 10:29:03;;;;;;;;;;;;;;;12.87;65.96;100096.44;5041694;28;19924;-50
2022/09/29 10:31:31;;;;;;;;;;;;;;;12.94;65.82;100099.44;5045544;28;19927;-49
2022/09/29 10:33:56;;;;;;;;;;;;;;;13.00;65.67;100106.91;5033959;28;20806;-49
2022/09/29 10:36:23;;;;;;;;;;;;;;;13.04;65.74;100108.34;5046538;28;20443;-50
2022/09/29 10:38:49;;;;;;;;;;;;;;;13.06;65.50;100102.94;5038507;28;19969;-49
2022/09/29 10:41:17;;;;;;;;;;;;;;;13.08;65.45;100104.50;5044091;28;19920;-49
2022/09/29 10:43:43;;;;;;;;;;;;;;;13.11;65.01;100106.91;5042630;28;19979;-52
2022/09/29 10:46:44;;;;;;;;;;;;;;;13.15;65.02;100112.81;5045729;28;19932;-48
2022/09/29 10:49:20;;;;;;;;;;;;;;;13.21;64.89;100101.75;4984241;28;19918;-49
2022/09/29 10:51:56;;;;;;;;;;;;;;;13.26;64.69;100101.38;5034659;28;20406;-49
2022/09/29 10:54:24;;;;;;;;;;;;;;;13.33;64.53;100110.50;5041025;28;19925;-51
2022/09/29 10:56:50;;;;;;;;;;;;;;;13.37;64.41;100104.00;5043445;28;19921;-49
2022/09/29 10:59:16;;;;;;;;;;;;;;;13.44;64.30;100112.31;5042084;28;20376;-50
2022/09/29 11:01:44;;;;;;;;;;;;;;;13.49;64.47;100114.59;5028456;28;20479;-49
2022/09/29 11:04:22;;;;;;;;;;;;;;;13.54;64.38;100115.03;5044852;28;19979;-49
2022/09/29 11:06:48;;;;;;;;;;;;;;;13.62;64.08;100120.56;5045863;28;19983;-49
2022/09/29 11:09:16;;;;;;;;;;;;;;;13.68;64.01;100120.09;5041614;28;20023;-49
2022/09/29 11:11:47;;;;;;;;;;;;;;;13.74;64.01;100120.53;5041900;28;19932;-51
2022/09/29 11:14:25;;;;;;;;;;;;;;;13.80;63.80;100133.28;5045221;28;19924;-48
2022/09/29 11:16:52;;;;;;;;;;;;;;;13.83;63.79;100125.09;5037497;28;19951;-51
2022/09/29 11:19:18;;;;;;;;;;;;;;;13.86;63.49;100123.03;5041125;28;20396;-51
2022/09/29 11:22:03;;;;;;;;;;;;;;;13.92;63.43;100126.13;5038703;28;19928;-52
2022/09/29 11:24:47;;;;;;;;;;;;;;;13.97;63.24;100131.88;5041121;28;19932;-50
2022/09/29 11:27:31;;;;;;;;;;;;;;;14.00;63.07;100129.81;5043102;28;19921;-49
2022/09/29 11:30:02;;;;;;;;;;;;;;;14.02;62.95;100127.88;5039102;28;19948;-52
2022/09/29 11:32:46;;;;;;;;;;;;;;;14.00;62.77;100129.81;5040041;28;19983;-49
2022/09/29 11:35:46;;;;;;;;;;;;;;;14.00;62.81;100134.28;5041901;28;20013;-49
2022/09/29 11:38:20;;;;;;;;;;;;;;;14.00;62.81;100137.75;4959338;28;19992;-49
2022/09/29 11:41:04;;;;;;;;;;;;;;;14.03;62.90;100139.31;5013885;28;20007;-48
2022/09/29 11:43:38;;;;;;;;;;;;;;;14.07;62.83;100139.91;5043744;28;19924;-49
2022/09/29 11:46:21;;;;;;;;;;;;;;;14.10;62.85;100144.94;5041836;28;19917;-51
2022/09/29 11:48:59;;;;;;;;;;;;;;;14.07;62.46;100142.56;5045196;28;19924;-52
2022/09/29 11:51:34;;;;;;;;;;;;;;;14.00;62.45;100143.03;5040166;28;19920;-51
2022/09/29 11:54:11;;;;;;;;;;;;;;;13.97;62.44;100145.09;5038445;28;19917;-50
2022/09/29 11:56:46;;;;;;;;;;;;;;;13.97;62.42;100143.31;5042467;28;20387;-52
2022/09/29 11:59:19;;;;;;;;;;;;;;;13.97;62.53;100143.31;5042670;28;20043;-51
2022/09/29 12:01:47;;;;;;;;;;;;;;;14.02;62.70;100143.75;5044256;28;20006;-49
2022/09/29 12:04:37;;;;;;;;;;;;;;;14.09;62.71;100149.38;5048038;28;20308;-50
2022/09/29 12:07:21;;;;;;;;;;;;;;;14.16;62.52;100145.28;5048423;28;20434;-50
2022/09/29 12:10:00;;;;;;;;;;;;;;;14.22;62.35;100149.22;5048754;28;19920;-51
2022/09/29 12:12:30;;;;;;;;;;;;;;;14.25;62.21;100146.34;5042304;28;19921;-52
2022/09/29 12:15:16;;;;;;;;;;;;;;;14.29;62.30;100147.72;5039922;28;19916;-52
2022/09/29 12:17:45;;;;;;;;;;;;;;;14.35;62.20;100148.19;5044316;28;19929;-50
2022/09/29 12:20:19;;;;;;;;;;;;;;;14.40;61.99;100152.13;5047282;28;19935;-49
2022/09/29 12:22:46;;;;;;;;;;;;;;;14.48;62.01;100149.72;5049651;28;20003;-49
2022/09/29 12:25:14;;;;;;;;;;;;;;;14.55;61.81;100157.97;5046595;28;19932;-49
2022/09/29 12:27:41;;;;;;;;;;;;;;;14.61;61.45;100160.09;5047645;28;19921;-49
2022/09/29 12:30:09;;;;;;;;;;;;;;;14.66;61.31;100149.13;5048743;28;20543;-49
2022/09/29 12:32:41;;;;;;;;;;;;;;;14.72;61.14;100153.94;5047933;28;19924;-48
2022/09/29 12:35:19;;;;;;;;;;;;;;;14.81;61.03;100154.13;5041198;28;19924;-50
2022/09/29 12:37:45;;;;;;;;;;;;;;;14.86;60.96;100158.06;5045150;28;19979;-51
2022/09/29 12:40:23;;;;;;;;;;;;;;;14.97;60.75;100161.59;5045139;28;19932;-49
2022/09/29 12:43:21;;;;;;;;;;;;;;;15.09;60.64;100163.19;5045507;28;19916;-50
2022/09/29 12:45:55;;;;;;;;;;;;;;;15.24;60.33;100161.03;5014026;28;19963;-49
2022/09/29 12:48:33;;;;;;;;;;;;;;;15.30;59.92;100155.19;5046147;28;19921;-49
2022/09/29 12:51:18;;;;;;;;;;;;;;;15.35;59.90;100165.41;5043149;28;19932;-49
2022/09/29 12:53:44;;;;;;;;;;;;;;;15.43;59.92;100170.88;5038505;28;19920;-50
2022/09/29 12:56:12;;;;;;;;;;;;;;;15.51;59.85;100167.53;5045056;28;20351;-51
2022/09/29 12:58:46;;;;;;;;;;;;;;;15.60;59.65;100166.72;5044654;28;19925;-51